Bewolking Meer informatie Parkstad Weather Satellite


Neerslagradar Meer informatie Parkstad Rain Snow Radar


Onweersbuien Meer informatie Parkstad Lighntning


24/7 Weercamera Meer informatie Parkstad Weathercam


Natuurbrandrisico
CBI







Het weer levert geen direct gevaar op in Parkstad.    Er zijn geen waarschuwingen afgegeven voor Parkstad (045)

Select another period ( hide this area )

Eenheden Periode Custom range Directly to
Metrisch Engels Beide
Dagelijkse Wekelijkse Maandelijkse Jaarlijkse
use both date-selectors for a custom range
previous Dag
With this date

WeatherUnderground graphs for this period ( click here ) Loading the graph can take up to a minute!


Dagelijkse Samenvatting Donderdag 22 oktober 2020
Tijd Temp. ( °C ) Dew pt. ( °C ) Wind ( km/h ) van Windvlaag ( km/h ) Luchtdruk ( hPa ) Humid.( % ) Rainrate ( cm ) Zonneschijn ( W/m2 )
Hoog17,2 13,2 32,0 ZW ( 2121/2311 ) 37,0 1009,8 86 - 171
Gemiddeld15,7 12,5 18,3 ZW #115/126 20,5 1007,7 81 - 67 #25/126
Laag14,8 11,9 11,0   11,0 1005,4 73 -  
Dagelijkse Tabular details for Donderdag 22 oktober 2020
Tijd Temp. ( °C ) Dew pt. ( °C ) Wind ( km/h ) van Windvlaag ( km/h ) Luchtdruk ( hPa ) Humid.( % ) Rainrate ( cm ) Zonneschijn ( W/m2 )
00:04 17,2 12,3 24,0 ZW 27,0 1005,4 73 - -
00:09 17,1 12,2 26,0 ZW 27,0 1005,4 73 - -
00:14 17,1 12,3 26,0 ZW 26,0 1005,8 74 - -
00:19 17,0 12,3 32,0 ZW 32,0 1005,8 74 - -
00:24 16,9 12,2 24,0 ZW 32,0 1005,8 74 - -
00:29 16,9 12,2 32,0 ZW 32,0 1005,8 74 - -
00:34 16,9 12,2 26,0 ZW 32,0 1005,8 74 - -
00:39 16,8 12,1 21,0 ZW 21,0 1005,8 74 - -
00:44 16,7 12,2 18,0 ZW 27,0 1006,1 75 - -
00:49 16,7 12,2 23,0 ZW 23,0 1006,1 75 - -
00:54 16,7 12,2 21,0 ZW 24,0 1006,1 75 - -
00:59 16,6 12,1 23,0 ZW 24,0 1006,4 75 - -
01:04 16,6 12,1 21,0 ZW 23,0 1006,4 75 - -
01:09 16,4 12,2 24,0 ZW 24,0 1006,4 76 - -
01:14 16,4 12,2 16,0 ZW 18,0 1006,4 76 - -
01:19 16,3 12,1 23,0 ZW 23,0 1006,1 76 - -
01:24 16,4 12,1 18,0 ZW 21,0 1006,1 76 - -
01:29 16,3 12,1 18,0 ZW 21,0 1006,4 76 - -
01:34 16,3 12,1 16,0 ZW 21,0 1006,4 76 - -
01:39 16,2 12,0 16,0 ZW 18,0 1006,4 76 - -
01:44 16,2 12,0 14,0 ZW 18,0 1006,8 76 - -
01:49 16,1 11,9 18,0 ZW 18,0 1006,8 76 - -
01:54 16,1 11,9 20,0 WZW 21,0 1006,8 76 - -
01:59 16,1 12,1 18,0 ZW 18,0 1006,8 77 - -
02:04 16,1 12,1 21,0 ZW 21,0 1006,8 77 - -
02:09 15,9 11,9 16,0 ZW 19,0 1006,8 77 - -
02:14 15,9 11,9 14,0 ZW 16,0 1007,1 77 - -
02:19 15,9 12,0 16,0 ZW 16,0 1007,1 78 - -
02:24 15,8 12,0 21,0 ZW 21,0 1007,1 78 - -
02:29 15,8 12,0 18,0 ZW 21,0 1007,1 78 - -
02:34 15,8 12,0 14,0 ZW 16,0 1007,1 78 - -
02:39 15,7 12,1 20,0 ZW 21,0 1007,1 79 - -
02:44 15,6 12,0 14,0 ZW 21,0 1007,1 79 - -
02:49 15,5 12,1 14,0 ZW 21,0 1007,1 80 - -
02:54 15,5 12,1 18,0 ZW 21,0 1007,1 80 - -
02:59 15,4 12,0 14,0 ZW 21,0 1007,5 80 - -
03:04 15,4 12,0 13,0 ZW 21,0 1007,5 80 - -
03:09 15,4 12,0 14,0 ZW 15,0 1007,5 80 - -
03:14 15,3 12,1 13,0 ZW 15,0 1007,5 81 - -
03:19 15,3 12,1 13,0 ZW 15,0 1007,5 81 - -
03:24 15,3 12,1 11,0 WZW 13,0 1007,5 81 - -
03:29 15,2 12,1 16,0 WZW 16,0 1007,5 82 - -
03:34 15,1 12,0 11,0 ZW 11,0 1007,5 82 - -
03:39 15,1 12,0 16,0 ZW 16,0 1007,5 82 - -
03:44 15,1 12,1 18,0 ZW 18,0 1007,8 83 - -
03:49 15,0 12,1 13,0 ZW 15,0 1007,8 83 - -
03:54 15,0 12,2 11,0 ZW 18,0 1007,8 84 - -
03:59 14,9 12,2 13,0 ZW 13,0 1007,8 84 - -
04:04 14,9 12,2 13,0 ZW 18,0 1007,5 84 - -
04:09 14,8 12,1 14,0 ZW 15,0 1007,5 84 - -
04:14 14,8 12,3 18,0 ZW 18,0 1007,5 85 - -
04:19 14,8 12,3 11,0 WZW 13,0 1007,5 85 - -
04:24 14,8 12,3 18,0 ZW 18,0 1007,5 85 - -
04:29 14,8 12,3 14,0 WZW 18,0 1007,8 85 - -
04:34 14,8 12,5 16,0 ZW 16,0 1007,8 86 - -
04:39 14,8 12,5 16,0 ZW 16,0 1007,8 86 - -
04:44 14,9 12,6 18,0 ZW 18,0 1007,8 86 - -
04:49 14,9 12,6 14,0 WZW 18,0 1007,8 86 - -
04:54 14,9 12,6 16,0 ZW 18,0 1007,8 86 - -
04:59 15,0 12,7 20,0 WZW 19,0 1007,8 86 - -
05:04 15,0 12,7 16,0 ZW 16,0 1007,8 86 - -
05:09 15,1 12,8 14,0 ZW 19,0 1007,8 86 - -
05:14 15,1 12,6 20,0 ZW 19,0 1007,8 85 - -
05:19 15,1 12,6 18,0 ZW 19,0 1007,8 85 - -
05:24 15,1 12,6 18,0 ZW 21,0 1007,8 85 - -
05:29 15,2 12,7 21,0 ZW 21,0 1007,8 85 - -
05:34 15,2 12,7 14,0 ZW 16,0 1007,8 85 - -
05:39 15,3 12,8 21,0 ZW 21,0 1007,8 85 - -
05:44 15,3 12,8 14,0 ZW 18,0 1007,8 85 - -
05:49 15,3 12,6 20,0 ZW 21,0 1007,8 84 - -
05:54 15,3 12,6 20,0 ZW 19,0 1007,8 84 - -
05:59 15,4 12,7 21,0 ZW 21,0 1007,8 84 - -
06:04 15,4 12,7 20,0 ZW 21,0 1007,8 84 - -
06:09 15,4 12,5 18,0 ZW 19,0 1007,8 83 - -
06:14 15,5 12,6 20,0 ZW 23,0 1007,8 83 - -
06:19 15,5 12,6 20,0 ZW 23,0 1007,5 83 - -
06:24 15,6 12,7 23,0 ZW 23,0 1007,5 83 - -
06:29 15,6 12,7 16,0 ZW 23,0 1007,8 83 - -
06:34 15,6 12,7 16,0 ZW 18,0 1007,8 83 - -
06:39 15,7 12,8 21,0 ZW 21,0 1007,8 83 - -
06:44 15,7 12,8 20,0 ZW 19,0 1007,8 83 - -
06:49 15,7 12,6 20,0 ZW 19,0 1007,8 82 - -
06:54 15,7 12,6 18,0 ZW 23,0 1007,8 82 - -
06:59 15,7 12,6 21,0 ZW 21,0 1007,8 82 - -
07:04 15,7 12,6 21,0 ZW 21,0 1007,8 82 - -
07:09 15,7 12,6 16,0 ZW 16,0 1007,8 82 - -
07:14 15,7 12,6 18,0 ZW 21,0 1008,1 82 - -
07:19 15,7 12,6 14,0 ZW 18,0 1008,1 82 - -
07:24 15,7 12,6 16,0 ZW 16,0 1008,1 82 - -
07:29 15,8 12,7 14,0 ZW 16,0 1008,1 82 - -
07:34 15,8 12,7 13,0 ZW 16,0 1007,8 82 - -
07:39 15,8 12,7 26,0 ZZW 26,0 1007,8 82 - -
07:44 15,8 12,7 14,0 ZW 15,0 1007,8 82 - -
07:49 15,7 12,6 26,0 ZW 26,0 1007,8 82 - -
07:54 15,7 12,8 18,0 ZW 18,0 1007,8 83 - -
07:59 15,7 12,8 21,0 ZW 21,0 1008,1 83 - -
08:04 15,7 12,8 24,0 ZW 24,0 1008,1 83 - -
08:09 15,7 12,8 18,0 ZW 18,0 1008,1 83 - -
08:14 15,7 13,0 14,0 ZW 18,0 1008,1 84 - -
08:19 15,7 13,1 13,0 ZW 18,0 1008,1 85 - -
08:24 15,6 13,1 18,0 WZW 18,0 1008,1 85 - -
08:29 15,5 13,2 13,0 ZW 18,0 1008,5 86 - 5
08:34 15,4 13,1 13,0 ZW 13,0 1008,5 86 - 5
08:39 15,4 13,1 18,0 ZW 19,0 1008,5 86 - 9
08:44 15,4 13,1 14,0 ZW 19,0 1008,5 86 - 18
08:49 15,4 13,1 14,0 ZW 15,0 1008,5 86 - 19
08:54 15,4 13,1 16,0 ZW 16,0 1008,5 86 - 26
08:59 15,4 13,1 14,0 WZW 18,0 1008,8 86 - 39
09:04 15,5 13,2 21,0 ZW 21,0 1008,8 86 - 39
09:09 15,5 13,2 11,0 ZW 18,0 1008,8 86 - 46
09:14 15,6 13,1 18,0 ZW 21,0 1008,8 85 - 54
09:19 15,6 13,1 20,0 ZW 19,0 1008,8 85 - 37
09:24 15,6 13,1 14,0 ZW 15,0 1008,8 85 - 39
09:29 15,6 13,1 16,0 ZW 29,0 1009,1 85 - 39
09:34 15,7 13,0 24,0 ZW 29,0 1009,1 84 - 86
09:39 15,8 13,0 21,0 ZW 29,0 1009,1 84 - 98
09:44 15,8 12,9 18,0 ZW 29,0 1009,1 83 - 171
09:49 15,9 12,9 21,0 ZW 21,0 1009,1 83 - 120
09:54 15,9 12,8 26,0 ZW 26,0 1009,1 82 - 86
09:59 16,1 12,8 23,0 ZW 26,0 1009,8 81 - 100
10:04 16,1 12,8 26,0 ZW 26,0 1009,8 81 - 93
10:09 16,1 12,6 21,0 ZW 24,0 1009,8 80 - 127
10:14 16,2 12,7 26,0 ZW 26,0 1009,8 80 - 113
10:19 16,2 12,7 26,0 WZW 27,0 1009,8 80 - 113
10:24 16,2 12,7 31,0 ZW 37,0 1009,8 80 - 102
10:29 16,2 12,6 24,0 ZW 37,0 1009,8 79 - 100
Dagelijkse Samenvatting Donderdag 22 oktober 2020
Tijd Temp. ( °C ) Dew pt. ( °C ) Wind ( km/h ) van Windvlaag ( km/h ) Luchtdruk ( hPa ) Humid.( % ) Rainrate ( cm ) Zonneschijn ( W/m2 )
Hoog17,2 13,2 32,0 ZW ( 2121/2311 ) 37,0 1009,8 86 - 171
Gemiddeld15,7 12,5 18,3 ZW #115/126 20,5 1007,7 81 - 67 #25/126
Laag14,8 11,9 11,0   11,0 1005,4 73 -  
Dagelijkse Tabular details for Donderdag 22 oktober 2020
Tijd Temp. ( °C ) Dew pt. ( °C ) Wind ( km/h ) van Windvlaag ( km/h ) Luchtdruk ( hPa ) Humid.( % ) Rainrate ( cm ) Zonneschijn ( W/m2 )
00:04 17,2 12,3 24,0 ZW 27,0 1005,4 73 - -
00:09 17,1 12,2 26,0 ZW 27,0 1005,4 73 - -
00:14 17,1 12,3 26,0 ZW 26,0 1005,8 74 - -
00:19 17,0 12,3 32,0 ZW 32,0 1005,8 74 - -
00:24 16,9 12,2 24,0 ZW 32,0 1005,8 74 - -
00:29 16,9 12,2 32,0 ZW 32,0 1005,8 74 - -
00:34 16,9 12,2 26,0 ZW 32,0 1005,8 74 - -
00:39 16,8 12,1 21,0 ZW 21,0 1005,8 74 - -
00:44 16,7 12,2 18,0 ZW 27,0 1006,1 75 - -
00:49 16,7 12,2 23,0 ZW 23,0 1006,1 75 - -
00:54 16,7 12,2 21,0 ZW 24,0 1006,1 75 - -
00:59 16,6 12,1 23,0 ZW 24,0 1006,4 75 - -
01:04 16,6 12,1 21,0 ZW 23,0 1006,4 75 - -
01:09 16,4 12,2 24,0 ZW 24,0 1006,4 76 - -
01:14 16,4 12,2 16,0 ZW 18,0 1006,4 76 - -
01:19 16,3 12,1 23,0 ZW 23,0 1006,1 76 - -
01:24 16,4 12,1 18,0 ZW 21,0 1006,1 76 - -
01:29 16,3 12,1 18,0 ZW 21,0 1006,4 76 - -
01:34 16,3 12,1 16,0 ZW 21,0 1006,4 76 - -
01:39 16,2 12,0 16,0 ZW 18,0 1006,4 76 - -
01:44 16,2 12,0 14,0 ZW 18,0 1006,8 76 - -
01:49 16,1 11,9 18,0 ZW 18,0 1006,8 76 - -
01:54 16,1 11,9 20,0 WZW 21,0 1006,8 76 - -
01:59 16,1 12,1 18,0 ZW 18,0 1006,8 77 - -
02:04 16,1 12,1 21,0 ZW 21,0 1006,8 77 - -
02:09 15,9 11,9 16,0 ZW 19,0 1006,8 77 - -
02:14 15,9 11,9 14,0 ZW 16,0 1007,1 77 - -
02:19 15,9 12,0 16,0 ZW 16,0 1007,1 78 - -
02:24 15,8 12,0 21,0 ZW 21,0 1007,1 78 - -
02:29 15,8 12,0 18,0 ZW 21,0 1007,1 78 - -
02:34 15,8 12,0 14,0 ZW 16,0 1007,1 78 - -
02:39 15,7 12,1 20,0 ZW 21,0 1007,1 79 - -
02:44 15,6 12,0 14,0 ZW 21,0 1007,1 79 - -
02:49 15,5 12,1 14,0 ZW 21,0 1007,1 80 - -
02:54 15,5 12,1 18,0 ZW 21,0 1007,1 80 - -
02:59 15,4 12,0 14,0 ZW 21,0 1007,5 80 - -
03:04 15,4 12,0 13,0 ZW 21,0 1007,5 80 - -
03:09 15,4 12,0 14,0 ZW 15,0 1007,5 80 - -
03:14 15,3 12,1 13,0 ZW 15,0 1007,5 81 - -
03:19 15,3 12,1 13,0 ZW 15,0 1007,5 81 - -
03:24 15,3 12,1 11,0 WZW 13,0 1007,5 81 - -
03:29 15,2 12,1 16,0 WZW 16,0 1007,5 82 - -
03:34 15,1 12,0 11,0 ZW 11,0 1007,5 82 - -
03:39 15,1 12,0 16,0 ZW 16,0 1007,5 82 - -
03:44 15,1 12,1 18,0 ZW 18,0 1007,8 83 - -
03:49 15,0 12,1 13,0 ZW 15,0 1007,8 83 - -
03:54 15,0 12,2 11,0 ZW 18,0 1007,8 84 - -
03:59 14,9 12,2 13,0 ZW 13,0 1007,8 84 - -
04:04 14,9 12,2 13,0 ZW 18,0 1007,5 84 - -
04:09 14,8 12,1 14,0 ZW 15,0 1007,5 84 - -
04:14 14,8 12,3 18,0 ZW 18,0 1007,5 85 - -
04:19 14,8 12,3 11,0 WZW 13,0 1007,5 85 - -
04:24 14,8 12,3 18,0 ZW 18,0 1007,5 85 - -
04:29 14,8 12,3 14,0 WZW 18,0 1007,8 85 - -
04:34 14,8 12,5 16,0 ZW 16,0 1007,8 86 - -
04:39 14,8 12,5 16,0 ZW 16,0 1007,8 86 - -
04:44 14,9 12,6 18,0 ZW 18,0 1007,8 86 - -
04:49 14,9 12,6 14,0 WZW 18,0 1007,8 86 - -
04:54 14,9 12,6 16,0 ZW 18,0 1007,8 86 - -
04:59 15,0 12,7 20,0 WZW 19,0 1007,8 86 - -
05:04 15,0 12,7 16,0 ZW 16,0 1007,8 86 - -
05:09 15,1 12,8 14,0 ZW 19,0 1007,8 86 - -
05:14 15,1 12,6 20,0 ZW 19,0 1007,8 85 - -
05:19 15,1 12,6 18,0 ZW 19,0 1007,8 85 - -
05:24 15,1 12,6 18,0 ZW 21,0 1007,8 85 - -
05:29 15,2 12,7 21,0 ZW 21,0 1007,8 85 - -
05:34 15,2 12,7 14,0 ZW 16,0 1007,8 85 - -
05:39 15,3 12,8 21,0 ZW 21,0 1007,8 85 - -
05:44 15,3 12,8 14,0 ZW 18,0 1007,8 85 - -
05:49 15,3 12,6 20,0 ZW 21,0 1007,8 84 - -
05:54 15,3 12,6 20,0 ZW 19,0 1007,8 84 - -
05:59 15,4 12,7 21,0 ZW 21,0 1007,8 84 - -
06:04 15,4 12,7 20,0 ZW 21,0 1007,8 84 - -
06:09 15,4 12,5 18,0 ZW 19,0 1007,8 83 - -
06:14 15,5 12,6 20,0 ZW 23,0 1007,8 83 - -
06:19 15,5 12,6 20,0 ZW 23,0 1007,5 83 - -
06:24 15,6 12,7 23,0 ZW 23,0 1007,5 83 - -
06:29 15,6 12,7 16,0 ZW 23,0 1007,8 83 - -
06:34 15,6 12,7 16,0 ZW 18,0 1007,8 83 - -
06:39 15,7 12,8 21,0 ZW 21,0 1007,8 83 - -
06:44 15,7 12,8 20,0 ZW 19,0 1007,8 83 - -
06:49 15,7 12,6 20,0 ZW 19,0 1007,8 82 - -
06:54 15,7 12,6 18,0 ZW 23,0 1007,8 82 - -
06:59 15,7 12,6 21,0 ZW 21,0 1007,8 82 - -
07:04 15,7 12,6 21,0 ZW 21,0 1007,8 82 - -
07:09 15,7 12,6 16,0 ZW 16,0 1007,8 82 - -
07:14 15,7 12,6 18,0 ZW 21,0 1008,1 82 - -
07:19 15,7 12,6 14,0 ZW 18,0 1008,1 82 - -
07:24 15,7 12,6 16,0 ZW 16,0 1008,1 82 - -
07:29 15,8 12,7 14,0 ZW 16,0 1008,1 82 - -
07:34 15,8 12,7 13,0 ZW 16,0 1007,8 82 - -
07:39 15,8 12,7 26,0 ZZW 26,0 1007,8 82 - -
07:44 15,8 12,7 14,0 ZW 15,0 1007,8 82 - -
07:49 15,7 12,6 26,0 ZW 26,0 1007,8 82 - -
07:54 15,7 12,8 18,0 ZW 18,0 1007,8 83 - -
07:59 15,7 12,8 21,0 ZW 21,0 1008,1 83 - -
08:04 15,7 12,8 24,0 ZW 24,0 1008,1 83 - -
08:09 15,7 12,8 18,0 ZW 18,0 1008,1 83 - -
08:14 15,7 13,0 14,0 ZW 18,0 1008,1 84 - -
08:19 15,7 13,1 13,0 ZW 18,0 1008,1 85 - -
08:24 15,6 13,1 18,0 WZW 18,0 1008,1 85 - -
08:29 15,5 13,2 13,0 ZW 18,0 1008,5 86 - 5
08:34 15,4 13,1 13,0 ZW 13,0 1008,5 86 - 5
08:39 15,4 13,1 18,0 ZW 19,0 1008,5 86 - 9
08:44 15,4 13,1 14,0 ZW 19,0 1008,5 86 - 18
08:49 15,4 13,1 14,0 ZW 15,0 1008,5 86 - 19
08:54 15,4 13,1 16,0 ZW 16,0 1008,5 86 - 26
08:59 15,4 13,1 14,0 WZW 18,0 1008,8 86 - 39
09:04 15,5 13,2 21,0 ZW 21,0 1008,8 86 - 39
09:09 15,5 13,2 11,0 ZW 18,0 1008,8 86 - 46
09:14 15,6 13,1 18,0 ZW 21,0 1008,8 85 - 54
09:19 15,6 13,1 20,0 ZW 19,0 1008,8 85 - 37
09:24 15,6 13,1 14,0 ZW 15,0 1008,8 85 - 39
09:29 15,6 13,1 16,0 ZW 29,0 1009,1 85 - 39
09:34 15,7 13,0 24,0 ZW 29,0 1009,1 84 - 86
09:39 15,8 13,0 21,0 ZW 29,0 1009,1 84 - 98
09:44 15,8 12,9 18,0 ZW 29,0 1009,1 83 - 171
09:49 15,9 12,9 21,0 ZW 21,0 1009,1 83 - 120
09:54 15,9 12,8 26,0 ZW 26,0 1009,1 82 - 86
09:59 16,1 12,8 23,0 ZW 26,0 1009,8 81 - 100
10:04 16,1 12,8 26,0 ZW 26,0 1009,8 81 - 93
10:09 16,1 12,6 21,0 ZW 24,0 1009,8 80 - 127
10:14 16,2 12,7 26,0 ZW 26,0 1009,8 80 - 113
10:19 16,2 12,7 26,0 WZW 27,0 1009,8 80 - 113
10:24 16,2 12,7 31,0 ZW 37,0 1009,8 80 - 102
10:29 16,2 12,6 24,0 ZW 37,0 1009,8 79 - 100

Download your copy of this data-set  here

U vindt ons ook hier:

Het Weer Aktueel

WOW Nederland KNMI

Vereniging voor Weerkunde en Klimatologie

UK Met Office Weather Observation Website (WOW)

WeatherCloud

Weather Underground

Awekas

MeteoMap.Cloud

HAMweather, WeatherForYou, PWS Weather

Citizen Weather Observer Program (CWOP)

Apparatuur in gebruik:

Hardwareleverancier
Weerhuisje

Weerstation
Vantage Pro2+ UV

Weercomputer's
alix3d2 & wl330n

Weerprogramma's
Smartbedded

Satelliet NOAA's
WRX137 & KX137

Satelliet Eumetsat
Ayecka SR1 & Triax

Bliksemdetectie
Boltek StormTracker

Webleverancier
F-Service

Weerhuisje

Vantage Pro2+ UV

alix3d2 & wl330n

Smartbedded

WRX137 & KX137

Ayecka SR1 & Triax

Boltek StormTracker

F-Service